Time;durP1;ratioP1;P1;durP2;ratioP2;P2;SDS_P1;SDS_P2;PMS_P1;PMS_P2;Temp;Humidity;BMP_temperature;BMP_pressure;BME280_temperature;BME280_humidity;BME280_pressure;Samples;Min_cycle;Max_cycle;Signal;HPM_P1;HPM_P2
2022/10/11 00:01:51;;;;;;;7.13;2.58;;;;;;;;;;5052877;28;20040;-81
2022/10/11 00:04:16;;;;;;;4.68;2.45;;;;;;;;;;5034088;28;20067;-82
2022/10/11 00:06:42;;;;;;;4.78;2.53;;;;;;;;;;5034608;28;20040;-82
2022/10/11 00:09:10;;;;;;;6.68;2.78;;;;;;;;;;5050930;28;20051;-82
2022/10/11 00:11:36;;;;;;;5.43;2.58;;;;;;;;;;5035313;28;20425;-82
2022/10/11 00:14:01;;;;;;;3.97;2.47;;;;;;;;;;5038464;28;20053;-81
2022/10/11 00:16:27;;;;;;;6.07;2.40;;;;;;;;;;5038547;28;20053;-82
2022/10/11 00:18:52;;;;;;;4.32;2.55;;;;;;;;;;5056271;28;20427;-81
2022/10/11 00:21:19;;;;;;;4.95;2.70;;;;;;;;;;5056208;28;20095;-82
2022/10/11 00:23:45;;;;;;;6.28;2.80;;;;;;;;;;5054683;28;20025;-82
2022/10/11 00:26:10;;;;;;;5.10;2.50;;;;;;;;;;5038595;28;20082;-82
2022/10/11 00:28:36;;;;;;;4.05;2.30;;;;;;;;;;5055990;28;20052;-82
2022/10/11 00:31:05;;;;;;;4.55;2.25;;;;;;;;;;5054506;28;20055;-82
2022/10/11 00:33:31;;;;;;;4.38;2.15;;;;;;;;;;5054537;28;20021;-82
2022/10/11 00:35:58;;;;;;;4.68;2.08;;;;;;;;;;5056042;28;20438;-82
2022/10/11 00:38:24;;;;;;;3.20;2.17;;;;;;;;;;5037719;28;20442;-81
2022/10/11 00:40:49;;;;;;;7.03;2.50;;;;;;;;;;5037636;28;20061;-82
2022/10/11 00:43:17;;;;;;;4.07;2.40;;;;;;;;;;5054286;28;20033;-81
2022/10/11 00:46:04;;;;;;;3.63;2.20;;;;;;;;;;5037548;28;20021;-82
2022/10/11 00:48:32;;;;;;;5.60;2.13;;;;;;;;;;5054058;28;20033;-82
2022/10/11 00:51:00;;;;;;;5.30;1.95;;;;;;;;;;5055429;28;20048;-82
2022/10/11 00:53:27;;;;;;;3.10;2.00;;;;;;;;;;5037446;28;20032;-82
2022/10/11 00:55:59;;;;;;;4.38;2.10;;;;;;;;;;5054519;28;20088;-82
2022/10/11 00:58:24;;;;;;;3.85;2.25;;;;;;;;;;5054111;28;20020;-82
2022/10/11 01:00:50;;;;;;;4.13;2.13;;;;;;;;;;5053921;28;20051;-82
2022/10/11 01:03:19;;;;;;;3.55;2.15;;;;;;;;;;5055275;28;20436;-82
2022/10/11 01:05:45;;;;;;;3.50;1.75;;;;;;;;;;5037351;28;20112;-82
2022/10/11 01:08:11;;;;;;;6.03;2.17;;;;;;;;;;5037711;28;20156;-81
2022/10/11 01:10:36;;;;;;;3.22;2.17;;;;;;;;;;5053888;28;20529;-82
2022/10/11 01:13:24;;;;;;;2.92;2.00;;;;;;;;;;5053702;28;20048;-82
2022/10/11 01:15:56;;;;;;;4.20;2.05;;;;;;;;;;5037333;28;20036;-82
2022/10/11 01:18:29;;;;;;;3.58;2.03;;;;;;;;;;5053671;28;20052;-82
2022/10/11 01:21:08;;;;;;;3.08;1.98;;;;;;;;;;5037043;28;20017;-81
2022/10/11 01:23:46;;;;;;;4.38;2.10;;;;;;;;;;5053573;28;20060;-82
2022/10/11 01:26:20;;;;;;;3.20;1.80;;;;;;;;;;5054770;28;20029;-81
2022/10/11 01:28:51;;;;;;;3.35;1.70;;;;;;;;;;5054772;28;20028;-82
2022/10/11 01:31:27;;;;;;;3.65;2.15;;;;;;;;;;5053407;28;20399;-82
2022/10/11 01:34:00;;;;;;;2.67;1.92;;;;;;;;;;5053539;28;20029;-82
2022/10/11 01:36:46;;;;;;;4.38;2.22;;;;;;;;;;5053770;28;20036;-82
2022/10/11 01:39:26;;;;;;;2.42;1.83;;;;;;;;;;5036544;28;20071;-83
2022/10/11 01:41:54;;;;;;;3.30;1.90;;;;;;;;;;5036492;28;20021;-82
2022/10/11 01:44:22;;;;;;;4.80;1.90;;;;;;;;;;5053232;28;20021;-83
2022/10/11 01:46:47;;;;;;;5.30;2.03;;;;;;;;;;5053437;28;20110;-83
2022/10/11 01:49:13;;;;;;;4.00;2.22;;;;;;;;;;5036767;28;20424;-83
2022/10/11 01:51:41;;;;;;;4.22;2.10;;;;;;;;;;5036622;28;20036;-83
2022/10/11 01:54:23;;;;;;;4.00;1.88;;;;;;;;;;5036585;28;20375;-83
2022/10/11 01:57:07;;;;;;;5.28;1.75;;;;;;;;;;5053242;28;20110;-82
2022/10/11 02:00:00;;;;;;;3.78;2.13;;;;;;;;;;5054529;28;20021;-82
2022/10/11 02:02:51;;;;;;;4.35;2.40;;;;;;;;;;5054416;28;20036;-83
2022/10/11 02:05:22;;;;;;;3.95;2.05;;;;;;;;;;5055042;28;20041;-82
2022/10/11 02:08:03;;;;;;;2.75;1.88;;;;;;;;;;5055021;28;20518;-82
2022/10/11 02:10:30;;;;;;;4.63;1.70;;;;;;;;;;5053885;28;20036;-82
2022/10/11 02:13:03;;;;;;;3.15;2.10;;;;;;;;;;5054353;28;20083;-83
2022/10/11 02:15:30;;;;;;;5.80;2.00;;;;;;;;;;5052808;28;20448;-83
2022/10/11 02:17:58;;;;;;;3.75;2.00;;;;;;;;;;5054565;28;20035;-83
2022/10/11 02:20:25;;;;;;;4.50;2.10;;;;;;;;;;5052849;28;20048;-82
2022/10/11 02:23:06;;;;;;;6.00;1.90;;;;;;;;;;5053017;28;20527;-82
2022/10/11 02:25:34;;;;;;;6.72;2.28;;;;;;;;;;5035980;28;20138;-82
2022/10/11 02:28:01;;;;;;;3.92;2.20;;;;;;;;;;5036016;28;20021;-82
2022/10/11 02:30:28;;;;;;;3.78;2.17;;;;;;;;;;5035575;28;20021;-82
2022/10/11 02:32:53;;;;;;;4.53;2.10;;;;;;;;;;5053006;28;20150;-82
2022/10/11 02:35:21;;;;;;;5.50;2.17;;;;;;;;;;5053131;28;20048;-84
2022/10/11 02:38:00;;;;;;;4.47;2.45;;;;;;;;;;5052696;28;20564;-82
2022/10/11 02:40:34;;;;;;;2.97;1.88;;;;;;;;;;5036185;28;20035;-82
2022/10/11 02:43:18;;;;;;;4.18;1.90;;;;;;;;;;5052509;28;20041;-83
2022/10/11 02:45:58;;;;;;;2.70;1.75;;;;;;;;;;5052229;28;20082;-82
2022/10/11 02:48:26;;;;;;;4.38;2.28;;;;;;;;;;5052361;28;20040;-83
2022/10/11 02:50:52;;;;;;;2.78;1.80;;;;;;;;;;5035516;28;20048;-83
2022/10/11 02:53:18;;;;;;;5.70;1.90;;;;;;;;;;5035343;28;20360;-82
2022/10/11 02:55:43;;;;;;;3.05;1.98;;;;;;;;;;5052215;28;20043;-82
2022/10/11 02:58:09;;;;;;;3.42;1.67;;;;;;;;;;5053558;28;20039;-82
2022/10/11 03:00:34;;;;;;;4.45;1.80;;;;;;;;;;5018889;28;20368;-82
2022/10/11 03:02:59;;;;;;;3.85;2.28;;;;;;;;;;5051752;28;20041;-82
2022/10/11 03:05:25;;;;;;;7.55;1.90;;;;;;;;;;5051735;28;20060;-82
2022/10/11 03:07:50;;;;;;;3.92;1.83;;;;;;;;;;5053023;28;20037;-82
2022/10/11 03:10:16;;;;;;;4.85;1.95;;;;;;;;;;5035190;28;20561;-82
2022/10/11 03:12:41;;;;;;;3.75;2.17;;;;;;;;;;5052317;28;20082;-82
2022/10/11 03:15:07;;;;;;;4.30;1.95;;;;;;;;;;5053150;28;20040;-82
2022/10/11 03:17:32;;;;;;;3.10;1.80;;;;;;;;;;5052198;28;20036;-83
2022/10/11 03:19:57;;;;;;;3.08;1.85;;;;;;;;;;5051718;28;20021;-82
2022/10/11 03:22:23;;;;;;;2.90;1.85;;;;;;;;;;5052049;28;20029;-83
2022/10/11 03:24:48;;;;;;;8.43;2.08;;;;;;;;;;5035530;28;20036;-82
2022/10/11 03:27:13;;;;;;;5.50;1.80;;;;;;;;;;5052939;28;20025;-81
2022/10/11 03:29:39;;;;;;;3.90;2.08;;;;;;;;;;5052942;28;20056;-83
2022/10/11 03:32:04;;;;;;;5.50;2.03;;;;;;;;;;5053279;28;20020;-82
2022/10/11 03:34:30;;;;;;;2.35;1.70;;;;;;;;;;5051835;28;20116;-82
2022/10/11 03:36:55;;;;;;;2.45;1.92;;;;;;;;;;5051642;28;20387;-82
2022/10/11 03:39:20;;;;;;;2.90;1.50;;;;;;;;;;5051506;28;20029;-82
2022/10/11 03:41:46;;;;;;;5.53;1.85;;;;;;;;;;5051277;28;20365;-82
2022/10/11 03:44:11;;;;;;;2.63;1.50;;;;;;;;;;5051325;28;20090;-81
2022/10/11 03:46:37;;;;;;;3.08;1.77;;;;;;;;;;5035102;28;20066;-82
2022/10/11 03:49:02;;;;;;;4.60;1.60;;;;;;;;;;5022539;28;20053;-82
2022/10/11 03:51:27;;;;;;;3.28;1.73;;;;;;;;;;5071852;28;20397;-81
2022/10/11 03:53:53;;;;;;;4.07;1.58;;;;;;;;;;5038614;28;20033;-82
2022/10/11 03:56:18;;;;;;;7.20;1.80;;;;;;;;;;5071963;28;20116;-82
2022/10/11 03:58:43;;;;;;;3.40;1.60;;;;;;;;;;5055638;28;20102;-83
2022/10/11 04:01:09;;;;;;;3.90;1.85;;;;;;;;;;5056519;28;20114;-82
2022/10/11 04:03:34;;;;;;;2.92;1.75;;;;;;;;;;5055436;28;20029;-81
2022/10/11 04:06:00;;;;;;;3.45;1.75;;;;;;;;;;5022139;28;20084;-82
2022/10/11 04:08:25;;;;;;;3.22;1.63;;;;;;;;;;5038464;28;20033;-82
2022/10/11 04:10:51;;;;;;;2.80;1.67;;;;;;;;;;5038180;28;20467;-81
2022/10/11 04:13:16;;;;;;;2.88;1.40;;;;;;;;;;5038339;28;20037;-82
2022/10/11 04:15:41;;;;;;;4.97;1.60;;;;;;;;;;5038268;28;20124;-82
2022/10/11 04:18:07;;;;;;;3.42;1.50;;;;;;;;;;5038181;28;20039;-83
2022/10/11 04:20:33;;;;;;;4.35;1.80;;;;;;;;;;5055099;28;20021;-82
2022/10/11 04:22:58;;;;;;;8.30;2.42;;;;;;;;;;5054990;28;20104;-83
2022/10/11 04:25:24;;;;;;;4.20;2.15;;;;;;;;;;5055013;28;20032;-83
2022/10/11 04:27:49;;;;;;;6.80;2.50;;;;;;;;;;5056149;28;20036;-86
2022/10/11 04:30:15;;;;;;;12.05;2.83;;;;;;;;;;5038271;28;20025;-82
2022/10/11 04:32:40;;;;;;;27.15;5.35;;;;;;;;;;5071850;28;20487;-82
2022/10/11 04:35:06;;;;;;;23.23;5.10;;;;;;;;;;5055716;28;20533;-81
2022/10/11 04:37:32;;;;;;;15.68;4.40;;;;;;;;;;5037930;28;20032;-81
2022/10/11 04:39:57;;;;;;;21.45;4.70;;;;;;;;;;5054586;28;20028;-81
2022/10/11 04:42:22;;;;;;;11.35;3.70;;;;;;;;;;5054478;28;20083;-80
2022/10/11 04:44:48;;;;;;;12.88;3.65;;;;;;;;;;5055610;28;20379;-80
2022/10/11 04:47:13;;;;;;;10.43;4.00;;;;;;;;;;5037708;28;20036;-82
2022/10/11 04:49:38;;;;;;;17.17;4.00;;;;;;;;;;5053928;28;20525;-82
2022/10/11 04:52:04;;;;;;;12.07;3.70;;;;;;;;;;5054269;28;20040;-83
2022/10/11 04:54:29;;;;;;;14.13;4.60;;;;;;;;;;5054283;28;20471;-85
2022/10/11 04:56:54;;;;;;;16.92;3.80;;;;;;;;;;5054341;28;20124;-81
2022/10/11 04:59:20;;;;;;;13.85;3.55;;;;;;;;;;5053844;28;20025;-81
2022/10/11 05:01:45;;;;;;;13.82;4.05;;;;;;;;;;5054067;28;20029;-82
2022/10/11 05:04:11;;;;;;;22.45;4.57;;;;;;;;;;5037479;28;20082;-82
2022/10/11 05:06:36;;;;;;;15.45;4.43;;;;;;;;;;5037290;28;20543;-83
2022/10/11 05:09:01;;;;;;;19.27;4.50;;;;;;;;;;5055145;28;20033;-82
2022/10/11 05:11:27;;;;;;;13.52;4.38;;;;;;;;;;5054105;28;20052;-81
2022/10/11 05:13:53;;;;;;;19.08;4.78;;;;;;;;;;5055724;28;20095;-81
2022/10/11 05:16:18;;;;;;;15.25;3.95;;;;;;;;;;5054827;28;20033;-82
2022/10/11 05:18:43;;;;;;;15.30;4.05;;;;;;;;;;5056079;28;20383;-81
2022/10/11 05:21:27;;;;;;;13.63;3.70;;;;;;;;;;5037758;28;20025;-80
2022/10/11 05:23:55;;;;;;;13.63;3.70;;;;;;;;;;5037899;28;20032;-80
2022/10/11 05:26:21;;;;;;;18.85;4.40;;;;;;;;;;5055392;28;20048;-82
2022/10/11 05:28:47;;;;;;;8.23;3.20;;;;;;;;;;5056585;28;20438;-81
2022/10/11 05:31:13;;;;;;;12.82;3.22;;;;;;;;;;5039044;28;20040;-81
2022/10/11 05:33:39;;;;;;;10.63;3.50;;;;;;;;;;5037709;28;20024;-82
2022/10/11 05:36:05;;;;;;;11.75;3.53;;;;;;;;;;5037387;28;20036;-82
2022/10/11 05:38:30;;;;;;;10.48;3.30;;;;;;;;;;5037485;28;20032;-80
2022/10/11 05:41:03;;;;;;;9.55;3.30;;;;;;;;;;5037233;28;20033;-80
2022/10/11 05:43:29;;;;;;;14.15;2.90;;;;;;;;;;5053779;28;20052;-80
2022/10/11 05:45:55;;;;;;;7.80;3.10;;;;;;;;;;5055205;28;20055;-80
2022/10/11 05:48:20;;;;;;;8.20;2.83;;;;;;;;;;5053524;28;20456;-80
2022/10/11 05:50:46;;;;;;;8.93;3.25;;;;;;;;;;5053981;28;20213;-82
2022/10/11 05:53:11;;;;;;;6.13;2.75;;;;;;;;;;5053960;28;20028;-81
2022/10/11 05:55:38;;;;;;;9.13;2.88;;;;;;;;;;5054892;28;20047;-81
2022/10/11 05:58:04;;;;;;;5.53;2.45;;;;;;;;;;5053628;28;20490;-81
2022/10/11 06:00:29;;;;;;;5.28;2.92;;;;;;;;;;5036992;28;20046;-81
2022/10/11 06:02:55;;;;;;;12.32;2.90;;;;;;;;;;5037164;28;20395;-81
2022/10/11 06:05:20;;;;;;;8.20;2.75;;;;;;;;;;5054814;28;20036;-83
2022/10/11 06:07:46;;;;;;;5.65;2.38;;;;;;;;;;5054350;28;20472;-81
2022/10/11 06:10:11;;;;;;;6.30;2.75;;;;;;;;;;5054376;28;20040;-82
2022/10/11 06:12:37;;;;;;;9.15;3.00;;;;;;;;;;5055846;28;20029;-81
2022/10/11 06:15:04;;;;;;;11.05;2.95;;;;;;;;;;5037617;28;20029;-81
2022/10/11 06:17:29;;;;;;;4.68;2.47;;;;;;;;;;5054000;28;20482;-80
2022/10/11 06:19:54;;;;;;;5.07;2.70;;;;;;;;;;5055084;28;20507;-80
2022/10/11 06:22:20;;;;;;;5.10;2.40;;;;;;;;;;5053386;28;20043;-80
2022/10/11 06:24:46;;;;;;;7.38;3.08;;;;;;;;;;5055480;28;20056;-80
2022/10/11 06:27:11;;;;;;;4.72;2.63;;;;;;;;;;5037215;28;20426;-81
2022/10/11 06:29:37;;;;;;;10.10;2.55;;;;;;;;;;5053869;28;20030;-81
2022/10/11 06:32:02;;;;;;;6.70;2.97;;;;;;;;;;5054228;28;20036;-81
2022/10/11 06:34:27;;;;;;;6.57;3.05;;;;;;;;;;5054857;28;20029;-81
2022/10/11 06:36:53;;;;;;;7.93;2.60;;;;;;;;;;5036447;28;20115;-82
2022/10/11 06:39:18;;;;;;;5.35;2.50;;;;;;;;;;5054155;28;20028;-82
2022/10/11 06:41:44;;;;;;;4.30;2.33;;;;;;;;;;5036287;28;20029;-81
2022/10/11 06:44:10;;;;;;;8.25;2.70;;;;;;;;;;5053482;28;20034;-82
2022/10/11 06:46:36;;;;;;;5.57;2.30;;;;;;;;;;5054525;28;20068;-82
2022/10/11 06:49:01;;;;;;;8.60;2.70;;;;;;;;;;5052730;28;20110;-82
2022/10/11 06:51:28;;;;;;;7.32;2.42;;;;;;;;;;5052901;28;20124;-82
2022/10/11 06:53:56;;;;;;;5.65;2.42;;;;;;;;;;5052739;28;20094;-82
2022/10/11 06:56:23;;;;;;;4.60;2.50;;;;;;;;;;5053481;28;20021;-82
2022/10/11 06:58:49;;;;;;;4.22;2.75;;;;;;;;;;5036438;28;20032;-82
2022/10/11 07:01:17;;;;;;;4.40;2.35;;;;;;;;;;5069922;28;20029;-83
2022/10/11 07:03:44;;;;;;;7.07;2.50;;;;;;;;;;5053028;28;20119;-80
2022/10/11 07:06:12;;;;;;;5.53;2.20;;;;;;;;;;5053305;28;20361;-82
2022/10/11 07:08:37;;;;;;;5.10;2.13;;;;;;;;;;5052796;28;20035;-82
2022/10/11 07:11:19;;;;;;;5.68;2.45;;;;;;;;;;5053041;28;20025;-82
2022/10/11 07:13:49;;;;;;;7.53;2.45;;;;;;;;;;5054072;28;20078;-82
2022/10/11 07:16:15;;;;;;;5.25;2.53;;;;;;;;;;5052311;28;20029;-82
2022/10/11 07:18:40;;;;;;;6.18;2.40;;;;;;;;;;5053872;28;20029;-83
2022/10/11 07:21:09;;;;;;;6.50;3.03;;;;;;;;;;5035646;28;20033;-83
2022/10/11 07:23:35;;;;;;;9.80;2.72;;;;;;;;;;5035635;28;20076;-85
2022/10/11 07:26:00;;;;;;;8.68;4.15;;;;;;;;;;5052159;28;20033;-83
2022/10/11 07:28:26;;;;;;;8.20;3.10;;;;;;;;;;5052809;28;20119;-86
2022/10/11 07:30:51;;;;;;;6.47;3.25;;;;;;;;;;5035927;28;20103;-86
2022/10/11 07:33:16;;;;;;;5.30;2.78;;;;;;;;;;5035608;28;20032;-82
2022/10/11 07:35:42;;;;;;;7.20;2.92;;;;;;;;;;5035578;28;20494;-82
2022/10/11 07:38:07;;;;;;;9.68;2.90;;;;;;;;;;5053296;28;20035;-80
2022/10/11 07:40:40;;;;;;;8.13;3.20;;;;;;;;;;5035344;28;20372;-81
2022/10/11 07:43:05;;;;;;;10.88;3.13;;;;;;;;;;5028428;28;20018;-81
2022/10/11 07:45:31;;;;;;;12.82;3.65;;;;;;;;;;5011793;28;20034;-81
2022/10/11 07:47:56;;;;;;;12.38;3.20;;;;;;;;;;5010424;28;20053;-81
2022/10/11 07:50:22;;;;;;;11.13;3.28;;;;;;;;;;5031922;28;20124;-80
2022/10/11 07:52:47;;;;;;;13.10;3.13;;;;;;;;;;4998748;28;20029;-81
2022/10/11 07:55:13;;;;;;;8.88;2.83;;;;;;;;;;5031764;28;20030;-81
2022/10/11 07:57:38;;;;;;;9.63;2.75;;;;;;;;;;5031879;28;20030;-81
2022/10/11 08:00:04;;;;;;;11.27;3.20;;;;;;;;;;5031785;28;20109;-80
2022/10/11 08:02:30;;;;;;;9.27;3.03;;;;;;;;;;5033363;28;20034;-80
2022/10/11 08:04:55;;;;;;;7.80;2.78;;;;;;;;;;5032952;28;20026;-80
2022/10/11 08:07:20;;;;;;;15.02;3.13;;;;;;;;;;5031539;28;20224;-80
2022/10/11 08:09:46;;;;;;;7.97;3.05;;;;;;;;;;5015047;28;20045;-79
2022/10/11 08:12:11;;;;;;;6.72;2.90;;;;;;;;;;5025372;28;20427;-80
2022/10/11 08:14:37;;;;;;;6.18;2.80;;;;;;;;;;5011863;28;20041;-80
2022/10/11 08:17:02;;;;;;;7.25;3.10;;;;;;;;;;4995638;28;20033;-80
2022/10/11 08:19:28;;;;;;;5.75;2.72;;;;;;;;;;5006219;28;20028;-80
2022/10/11 08:21:53;;;;;;;8.25;2.85;;;;;;;;;;5032462;28;20404;-80
2022/10/11 08:24:19;;;;;;;6.65;2.83;;;;;;;;;;5033239;28;20088;-80
2022/10/11 08:26:47;;;;;;;9.68;2.90;;;;;;;;;;5013892;28;20025;-79
2022/10/11 08:29:13;;;;;;;7.65;3.08;;;;;;;;;;4998167;28;20038;-79
2022/10/11 08:31:38;;;;;;;5.25;2.80;;;;;;;;;;5015400;28;20040;-79
2022/10/11 08:34:04;;;;;;;6.70;2.80;;;;;;;;;;5019943;28;20034;-80
2022/10/11 08:36:29;;;;;;;6.57;2.80;;;;;;;;;;5022067;28;20388;-78
2022/10/11 08:38:55;;;;;;;7.50;2.88;;;;;;;;;;5007929;28;20030;-80
2022/10/11 08:41:28;;;;;;;5.80;2.65;;;;;;;;;;5023201;28;20041;-80
2022/10/11 08:44:10;;;;;;;7.60;2.75;;;;;;;;;;5037800;28;20072;-80
2022/10/11 08:46:38;;;;;;;9.13;3.08;;;;;;;;;;5019184;28;20033;-81
2022/10/11 08:49:05;;;;;;;6.57;2.63;;;;;;;;;;5020383;28;20034;-81
2022/10/11 08:51:35;;;;;;;8.52;2.70;;;;;;;;;;5000682;28;20065;-80
2022/10/11 08:54:06;;;;;;;9.77;2.90;;;;;;;;;;5016446;28;20025;-80
2022/10/11 08:56:36;;;;;;;8.27;3.03;;;;;;;;;;4999649;28;20642;-80
2022/10/11 08:59:03;;;;;;;8.35;2.70;;;;;;;;;;5015386;28;20028;-80
2022/10/11 09:01:30;;;;;;;8.45;2.85;;;;;;;;;;4998666;28;20116;-80
2022/10/11 09:03:58;;;;;;;7.65;2.33;;;;;;;;;;4998236;28;20033;-80
2022/10/11 09:06:45;;;;;;;9.70;2.60;;;;;;;;;;5014786;28;20030;-79
2022/10/11 09:09:44;;;;;;;8.32;2.67;;;;;;;;;;5015706;28;20026;-79
2022/10/11 09:12:22;;;;;;;6.88;2.33;;;;;;;;;;5020742;28;20029;-79
2022/10/11 09:15:19;;;;;;;8.18;2.63;;;;;;;;;;5035316;28;20029;-79
2022/10/11 09:18:08;;;;;;;12.52;2.47;;;;;;;;;;5033755;28;20031;-79
2022/10/11 09:20:39;;;;;;;4.38;2.45;;;;;;;;;;5033820;28;20025;-79
2022/10/11 09:23:33;;;;;;;8.18;2.47;;;;;;;;;;5034147;28;20025;-79
2022/10/11 09:26:10;;;;;;;7.07;2.20;;;;;;;;;;5034975;28;20175;-80
2022/10/11 09:29:00;;;;;;;10.00;2.40;;;;;;;;;;5033829;28;20084;-80
2022/10/11 09:31:26;;;;;;;7.05;2.63;;;;;;;;;;5034682;28;20034;-79
2022/10/11 09:33:52;;;;;;;6.75;2.50;;;;;;;;;;5035010;28;20044;-78
2022/10/11 09:36:38;;;;;;;11.90;2.70;;;;;;;;;;5017849;28;20030;-79
2022/10/11 09:39:29;;;;;;;8.15;2.50;;;;;;;;;;5019380;28;20036;-79
2022/10/11 09:41:59;;;;;;;6.95;2.88;;;;;;;;;;5036571;28;20032;-79
2022/10/11 09:44:31;;;;;;;8.32;2.42;;;;;;;;;;5035231;28;20029;-79
2022/10/11 09:46:57;;;;;;;5.28;2.22;;;;;;;;;;5037660;28;20026;-78
2022/10/11 09:49:39;;;;;;;6.63;2.25;;;;;;;;;;5037319;28;20075;-79
2022/10/11 09:52:13;;;;;;;7.20;2.40;;;;;;;;;;5034134;28;20033;-79
2022/10/11 09:54:40;;;;;;;;;;;;;;;;;;5034559;28;20029;-78
2022/10/11 09:57:17;;;;;;;7.85;2.20;;;;;;;;;;5035927;28;19916;-79
2022/10/11 09:59:43;;;;;;;12.40;2.78;;;;;;;;;;5018495;28;20030;-79
2022/10/11 10:02:16;;;;;;;7.70;2.30;;;;;;;;;;5017417;28;20033;-78
2022/10/11 10:04:58;;;;;;;11.63;2.53;;;;;;;;;;5033847;28;20109;-79
2022/10/11 10:07:24;;;;;;;12.00;2.30;;;;;;;;;;5033477;28;20387;-79
2022/10/11 10:09:51;;;;;;;4.15;1.75;;;;;;;;;;5034204;28;20030;-79
2022/10/11 10:12:26;;;;;;;8.80;2.00;;;;;;;;;;5029527;28;20120;-79
2022/10/11 10:15:07;;;;;;;6.70;2.05;;;;;;;;;;5013283;28;20508;-79
2022/10/11 10:17:33;;;;;;;3.90;2.22;;;;;;;;;;5013400;28;20045;-78
2022/10/11 10:19:59;;;;;;;8.20;2.10;;;;;;;;;;5013308;28;20502;-79
2022/10/11 10:22:30;;;;;;;10.30;1.70;;;;;;;;;;4997150;28;20029;-79
2022/10/11 10:24:57;;;;;;;9.98;2.50;;;;;;;;;;5013998;28;20018;-80
2022/10/11 10:27:25;;;;;;;6.53;2.10;;;;;;;;;;4997262;28;20026;-80
2022/10/11 10:30:12;;;;;;;8.85;2.30;;;;;;;;;;4997010;28;20105;-78
2022/10/11 10:33:03;;;;;;;6.20;2.17;;;;;;;;;;4997238;28;20120;-79
2022/10/11 10:35:38;;;;;;;16.02;2.22;;;;;;;;;;5013592;28;20033;-79
2022/10/11 10:38:36;;;;;;;9.48;2.00;;;;;;;;;;5013667;28;20161;-79
2022/10/11 10:41:13;;;;;;;4.70;1.70;;;;;;;;;;5014259;28;20044;-79
2022/10/11 10:43:40;;;;;;;8.38;1.88;;;;;;;;;;4996822;28;20030;-79
2022/10/11 10:46:16;;;;;;;9.32;2.00;;;;;;;;;;5013541;28;20055;-80
2022/10/11 10:48:57;;;;;;;4.65;1.77;;;;;;;;;;5013090;28;20022;-79
2022/10/11 10:51:38;;;;;;;5.15;1.60;;;;;;;;;;5014193;28;20057;-80
2022/10/11 10:54:25;;;;;;;5.50;2.17;;;;;;;;;;5013093;28;20116;-80
2022/10/11 10:57:18;;;;;;;6.03;1.90;;;;;;;;;;5014300;28;20028;-80
2022/10/11 11:00:14;;;;;;;6.35;2.08;;;;;;;;;;4996410;28;20037;-80
2022/10/11 11:02:45;;;;;;;5.60;1.75;;;;;;;;;;4996672;28;20072;-80
2022/10/11 11:05:25;;;;;;;11.40;1.85;;;;;;;;;;5012800;28;20033;-80
2022/10/11 11:08:03;;;;;;;9.55;2.17;;;;;;;;;;4996810;28;20030;-79
2022/10/11 11:10:40;;;;;;;9.25;2.38;;;;;;;;;;5012608;28;20026;-79
2022/10/11 11:13:21;;;;;;;7.72;1.50;;;;;;;;;;5013065;28;20049;-79
2022/10/11 11:15:55;;;;;;;8.02;2.10;;;;;;;;;;5012667;28;20034;-79
2022/10/11 11:18:27;;;;;;;8.18;2.00;;;;;;;;;;4996322;28;20074;-78
2022/10/11 11:21:20;;;;;;;10.55;2.22;;;;;;;;;;5012688;28;20033;-79
2022/10/11 11:23:55;;;;;;;10.52;1.80;;;;;;;;;;5014055;28;20100;-80
2022/10/11 11:26:36;;;;;;;14.57;2.00;;;;;;;;;;5012388;28;20018;-81
2022/10/11 11:29:08;;;;;;;7.63;1.90;;;;;;;;;;5014055;28;20526;-81
2022/10/11 11:31:54;;;;;;;5.47;1.80;;;;;;;;;;4996348;28;20096;-81
2022/10/11 11:34:23;;;;;;;8.32;2.08;;;;;;;;;;5012592;28;20037;-80
2022/10/11 11:36:53;;;;;;;6.65;1.85;;;;;;;;;;5014140;28;20026;-80
2022/10/11 11:39:22;;;;;;;9.55;1.92;;;;;;;;;;5012509;28;20457;-79
2022/10/11 11:41:54;;;;;;;16.00;1.77;;;;;;;;;;5024191;28;20026;-79
2022/10/11 11:44:36;;;;;;;10.98;1.90;;;;;;;;;;5013228;28;20026;-78
2022/10/11 11:47:25;;;;;;;9.10;2.08;;;;;;;;;;4996210;28;20061;-79
2022/10/11 11:50:00;;;;;;;7.28;1.80;;;;;;;;;;5012437;28;20034;-78
2022/10/11 11:52:35;;;;;;;11.95;1.90;;;;;;;;;;4996560;28;20388;-78
2022/10/11 11:55:23;;;;;;;7.85;2.03;;;;;;;;;;4996177;28;20037;-78
2022/10/11 11:58:03;;;;;;;8.55;2.28;;;;;;;;;;5013723;28;20366;-78
2022/10/11 12:00:53;;;;;;;5.90;1.60;;;;;;;;;;4996096;28;20028;-78
2022/10/11 12:03:27;;;;;;;12.48;2.22;;;;;;;;;;5013727;28;20034;-78
2022/10/11 12:06:18;;;;;;;7.55;2.10;;;;;;;;;;5014145;28;20080;-78
2022/10/11 12:09:03;;;;;;;12.35;1.85;;;;;;;;;;4998072;28;20026;-78
2022/10/11 12:11:39;;;;;;;8.57;1.67;;;;;;;;;;5016790;28;20037;-78
2022/10/11 12:14:40;;;;;;;8.23;1.95;;;;;;;;;;5016792;28;20049;-79
2022/10/11 12:17:07;;;;;;;9.90;1.90;;;;;;;;;;5000242;28;20081;-79
2022/10/11 12:19:33;;;;;;;5.55;1.55;;;;;;;;;;5016329;28;20025;-78
2022/10/11 12:22:37;;;;;;;8.52;1.63;;;;;;;;;;5016003;28;20038;-79
2022/10/11 12:25:09;;;;;;;5.53;1.52;;;;;;;;;;5015942;28;20029;-79
2022/10/11 12:27:46;;;;;;;5.80;1.92;;;;;;;;;;5019150;28;20029;-79
2022/10/11 12:30:45;;;;;;;4.97;1.58;;;;;;;;;;5020684;28;20021;-78
2022/10/11 12:33:17;;;;;;;7.03;1.70;;;;;;;;;;5017400;28;20030;-78
2022/10/11 12:35:51;;;;;;;12.80;2.88;;;;;;;;;;5017035;28;20054;-78
2022/10/11 12:38:29;;;;;;;9.27;1.98;;;;;;;;;;5015920;28;20087;-78
2022/10/11 12:41:20;;;;;;;11.00;2.08;;;;;;;;;;5015902;28;20014;-78
2022/10/11 12:43:48;;;;;;;11.07;2.05;;;;;;;;;;5017269;28;20029;-78
2022/10/11 12:46:30;;;;;;;9.30;1.52;;;;;;;;;;5017553;28;20053;-78
2022/10/11 12:49:23;;;;;;;4.88;2.00;;;;;;;;;;5017299;28;20034;-78
2022/10/11 12:52:01;;;;;;;11.38;1.70;;;;;;;;;;5016366;28;20129;-78
2022/10/11 12:54:51;;;;;;;7.47;2.30;;;;;;;;;;5017545;28;20037;-79
2022/10/11 12:57:38;;;;;;;4.53;1.60;;;;;;;;;;5015760;28;20032;-78
2022/10/11 13:00:28;;;;;;;9.23;1.80;;;;;;;;;;5015146;28;20030;-77
2022/10/11 13:03:15;;;;;;;13.18;1.92;;;;;;;;;;5014287;28;20048;-78
2022/10/11 13:05:43;;;;;;;5.97;1.70;;;;;;;;;;5017529;28;20034;-78
2022/10/11 13:08:14;;;;;;;7.53;2.15;;;;;;;;;;5017030;28;20469;-77
2022/10/11 13:10:43;;;;;;;7.72;1.80;;;;;;;;;;5025443;28;20025;-77
2022/10/11 13:13:36;;;;;;;8.25;2.00;;;;;;;;;;5026393;28;20026;-78
2022/10/11 13:16:07;;;;;;;12.68;1.70;;;;;;;;;;5015838;28;20037;-78
2022/10/11 13:18:33;;;;;;;7.80;2.17;;;;;;;;;;4998191;28;20022;-79
2022/10/11 13:20:58;;;;;;;8.20;1.70;;;;;;;;;;5015256;28;20026;-80
2022/10/11 13:23:26;;;;;;;6.97;1.98;;;;;;;;;;5015989;28;20440;-80
2022/10/11 13:25:53;;;;;;;9.02;2.00;;;;;;;;;;5016241;28;20034;-80
2022/10/11 13:28:18;;;;;;;9.20;2.03;;;;;;;;;;5014998;28;20389;-80
2022/10/11 13:30:46;;;;;;;7.55;1.52;;;;;;;;;;5014477;28;20041;-80
2022/10/11 13:33:22;;;;;;;7.03;1.95;;;;;;;;;;5014998;28;20030;-79
2022/10/11 13:35:48;;;;;;;4.50;1.55;;;;;;;;;;4998273;28;20060;-80
2022/10/11 13:38:23;;;;;;;7.47;2.20;;;;;;;;;;4998372;28;20057;-79
2022/10/11 13:40:48;;;;;;;8.05;1.80;;;;;;;;;;5014467;28;20029;-80
2022/10/11 13:43:14;;;;;;;4.05;1.50;;;;;;;;;;5015605;28;20029;-80
2022/10/11 13:45:40;;;;;;;7.03;1.70;;;;;;;;;;4997919;28;20484;-80
2022/10/11 13:48:12;;;;;;;5.05;1.42;;;;;;;;;;4998367;28;20041;-80
2022/10/11 13:50:38;;;;;;;6.43;1.70;;;;;;;;;;5014039;28;20125;-80
2022/10/11 13:53:24;;;;;;;5.25;1.65;;;;;;;;;;4998495;28;20487;-80
2022/10/11 13:55:52;;;;;;;8.32;1.80;;;;;;;;;;5015083;28;20033;-80
2022/10/11 13:58:27;;;;;;;8.52;1.70;;;;;;;;;;5015538;28;20077;-80
2022/10/11 14:00:56;;;;;;;7.15;1.67;;;;;;;;;;5014523;28;20026;-80
2022/10/11 14:03:23;;;;;;;7.00;2.10;;;;;;;;;;5015754;28;20030;-80
2022/10/11 14:05:57;;;;;;;10.90;2.03;;;;;;;;;;5014261;28;20465;-80
2022/10/11 14:08:32;;;;;;;5.97;1.60;;;;;;;;;;5014048;28;20044;-80
2022/10/11 14:10:58;;;;;;;7.80;1.90;;;;;;;;;;4997420;28;20076;-81
2022/10/11 14:13:39;;;;;;;6.22;2.15;;;;;;;;;;4982985;28;20432;-80
2022/10/11 14:16:06;;;;;;;4.72;1.48;;;;;;;;;;5016009;28;20022;-80
2022/10/11 14:18:40;;;;;;;7.57;1.85;;;;;;;;;;5014741;28;20026;-80
2022/10/11 14:21:17;;;;;;;5.82;1.88;;;;;;;;;;5014353;28;20080;-80
2022/10/11 14:23:44;;;;;;;6.68;1.90;;;;;;;;;;5014692;28;20369;-80
2022/10/11 14:26:13;;;;;;;6.07;1.50;;;;;;;;;;5015149;28;20038;-80
2022/10/11 14:28:39;;;;;;;5.40;1.52;;;;;;;;;;4997894;28;20096;-80
2022/10/11 14:31:04;;;;;;;6.10;1.83;;;;;;;;;;5013566;28;20030;-80
2022/10/11 14:33:33;;;;;;;7.15;1.60;;;;;;;;;;4999358;28;20069;-79
2022/10/11 14:35:59;;;;;;;4.82;1.48;;;;;;;;;;4999491;28;20030;-78
2022/10/11 14:38:24;;;;;;;8.88;1.80;;;;;;;;;;4982009;28;20040;-78
2022/10/11 14:40:50;;;;;;;3.95;1.65;;;;;;;;;;5017484;28;20021;-78
2022/10/11 14:43:15;;;;;;;8.60;1.80;;;;;;;;;;5016272;28;20036;-79
2022/10/11 14:45:41;;;;;;;8.10;2.13;;;;;;;;;;4983038;28;20030;-79
2022/10/11 14:48:06;;;;;;;7.75;1.75;;;;;;;;;;4998306;28;20061;-79
2022/10/11 14:50:35;;;;;;;8.95;1.95;;;;;;;;;;4997289;28;20053;-78
2022/10/11 14:53:01;;;;;;;7.97;1.67;;;;;;;;;;5015149;28;20034;-78
2022/10/11 14:55:28;;;;;;;8.23;1.75;;;;;;;;;;5014339;28;20076;-79
2022/10/11 14:57:55;;;;;;;3.47;1.45;;;;;;;;;;4999688;28;20057;-80
2022/10/11 15:00:23;;;;;;;6.13;1.80;;;;;;;;;;5000992;28;20033;-80
2022/10/11 15:02:51;;;;;;;6.22;1.90;;;;;;;;;;5018912;28;20075;-79